• Join FlightAware (Why Join?)
  • Login
  • US Flag 
06:14AM EDT


 

Airport Tracker/Info


-or-


 

Live Flight TrackerFlight Track Log ✈ QJE1930 ✈ 28-Oct-2013 ✈ YPPH / PER - YBRM / BME

Flight Track Log - Related Links

Times and Time Zones

All times are in EDT time to prevent confusion due to time zone crossing. See the QJE1930 flight status page for this flight to view local times or setup timezone preferences in your user account.

Time Position Orientation Groundspeed Altitude Reporting Facility
EDT Latitude Longitude Course Direction KTS MPH feet Rate Location/Type
03:43AM -31.9357 115.9664 195° South 105 121  Level FlightAware ADS-B (YPPH / PER)
03:43AM -31.9570 115.9603 194° South 165 190 500 1,380 Climbing FlightAware ADS-B (YPPH / PER)
03:44AM -32.0083 115.9503 189° South 210 242 2,200 1,560 Climbing FlightAware ADS-B (YPPH / PER)
03:44AM -32.0170 115.9536 162° South 213 245 2,400 1,320 Climbing FlightAware ADS-B (YPPH / PER)
03:45AM -32.0317 115.9671 142° Southeast 228 262 2,800 1,560 Climbing FlightAware ADS-B (YPPH / PER)
03:45AM -32.0383 115.9818 118° Southeast 239 275 3,200 2,100 Climbing FlightAware ADS-B (YPPH / PER)
03:45AM -32.0397 115.9875 106° East 254 292 3,400 2,160 Climbing FlightAware ADS-B (YPPH / PER)
03:45AM -32.0475 116.0212 105° East 258 297 4,300 2,400 Climbing FlightAware ADS-B (YPPH / PER)
03:46AM -32.0588 116.0705 105° East 250 288 5,900 2,280 Climbing Aus ATC (RADAR)
03:46AM -32.0681 116.1106 105° East 258 297 6,700 1,920 Climbing FlightAware ADS-B (YPPH / PER)
03:47AM -32.0768 116.1480 105° East 281 323 7,600 2,100 Climbing FlightAware ADS-B (YPPH / PER)
03:47AM -32.0823 116.1705 106° East 293 337 8,100 2,220 Climbing FlightAware ADS-B (YPPH / PER)
03:47AM -32.0863 116.2021 98° East 297 342 8,900 2,400 Climbing FlightAware ADS-B (YPPH / PER)
03:48AM -32.0829 116.2185 76° East 296 341 9,300 2,400 Climbing FlightAware ADS-B (YPPH / PER)
03:48AM -32.0692 116.2413 55° Northeast 295 339 10,000 1,980 Climbing FlightAware ADS-B (YPPH / PER)
03:48AM -32.0566 116.2567 46° Northeast 310 357 10,300 1,380 Climbing FlightAware ADS-B (YPPH / PER)
03:49AM -32.0163 116.3072 47° Northeast 331 381 11,200 1,320 Climbing FlightAware ADS-B (YPPH / PER)
03:49AM -31.9717 116.3624 46° Northeast 363 418 12,100 1,260 Climbing FlightAware ADS-B (YPPH / PER)
03:50AM -31.9316 116.4125 47° Northeast 384 442 12,800 1,560 Climbing FlightAware ADS-B (YPPH / PER)
03:51AM -31.8943 116.4590 47° Northeast 393 452 13,800 2,100 Climbing FlightAware ADS-B (YPPH / PER)
03:51AM -31.8562 116.5064 47° Northeast 400 460 14,900 1,980 Climbing FlightAware ADS-B (YPPH / PER)
03:52AM -31.8172 116.5546 46° Northeast 400 460 15,800 1,800 Climbing FlightAware ADS-B (YPPH / PER)
03:52AM -31.7751 116.6064 46° Northeast 406 467 16,800 1,800 Climbing FlightAware ADS-B (YPPH / PER)
03:53AM -31.7268 116.6663 47° Northeast 417 480 17,900 1,560 Climbing FlightAware ADS-B (YPPH / PER)
03:53AM -31.6848 116.7180 46° Northeast 426 490 18,600 1,560 Climbing FlightAware ADS-B (YPPH / PER)
03:54AM -31.6419 116.7712 47° Northeast 427 491 19,600 1,740 Climbing FlightAware ADS-B (YPPH / PER)
03:54AM -31.6003 116.8224 46° Northeast 425 489 20,400 1,560 Climbing FlightAware ADS-B (YPPH / PER)
03:55AM -31.5556 116.8673 41° Northeast 433 498 21,200 1,260 Climbing FlightAware ADS-B (YPPH / PER)
03:55AM -31.5019 116.8997 27° Northeast 436 502 21,700 1,260 Climbing FlightAware ADS-B (YPPH / PER)
03:56AM -31.4445 116.9234 19° North 440 506 22,500 1,440 Climbing FlightAware ADS-B (YPPH / PER)
03:56AM -31.3824 116.9493 20° North 444 511 23,200 1,140 Climbing FlightAware ADS-B (YPPH / PER)
03:57AM -31.3237 116.9733 19° North 443 510 23,700 960 Climbing FlightAware ADS-B (YPPH / PER)
03:57AM -31.2656 116.9971 19° North 447 514 24,200 1,080 Climbing FlightAware ADS-B (YPPH / PER)
03:58AM -31.2047 117.0221 19° North 457 526 24,800 1,080 Climbing FlightAware ADS-B (YPPH / PER)
03:58AM -31.1440 117.0468 19° North 461 531 25,300 960 Climbing FlightAware ADS-B (YPPH / PER)
03:59AM -31.0835 117.0715 19° North 458 527 25,800 960 Climbing FlightAware ADS-B (YPPH / PER)
03:59AM -31.0187 117.0981 19° North 461 531 26,300 840 Climbing FlightAware ADS-B (YPPH / PER)
04:00AM -30.9565 117.1234 19° North 473 544 26,700 780 Climbing FlightAware ADS-B (YPPH / PER)
04:00AM -30.8944 117.1487 19° North 475 547 27,100 960 Climbing FlightAware ADS-B (YPPH / PER)
04:01AM -30.8323 117.1742 19° North 467 537 27,700 1,080 Climbing FlightAware ADS-B (YPPH / PER)
04:01AM -30.7714 117.2024 22° Northeast 468 539 28,200 960 Climbing FlightAware ADS-B (YPPH / PER)
04:02AM -30.7095 117.2317 22° Northeast 467 537 28,700 1,200 Climbing FlightAware ADS-B (YPPH / PER)
04:02AM -30.6480 117.2603 22° Northeast 471 542 29,400 1,140 Climbing FlightAware ADS-B (YPPH / PER)
04:03AM -30.5838 117.2906 22° Northeast 470 541 29,900 1,020 Climbing FlightAware ADS-B (YPPH / PER)
04:03AM -30.5241 117.3178 21° North 467 537 30,500 900 Climbing FlightAware ADS-B (YPPH / PER)
04:04AM -30.4632 117.3458 22° Northeast 469 540 30,800 480 Climbing FlightAware ADS-B (YPPH / PER)
04:04AM -30.4024 117.3735 21° North 471 542 31,000 180 Climbing FlightAware ADS-B (YPPH / PER)
04:05AM -30.3425 117.4009 22° Northeast 470 541 31,000  Level FlightAware ADS-B (YPPH / PER)
04:05AM -30.2805 117.4292 22° Northeast 471 542 31,000  Level FlightAware ADS-B (YPPH / PER)
04:06AM -30.2159 117.4587 22° Northeast 465 535 31,000  Level FlightAware ADS-B (YPPH / PER)
04:06AM -30.1554 117.4862 21° North 471 542 31,000  Level FlightAware ADS-B (YPPH / PER)
04:07AM -30.0942 117.5142 22° Northeast 470 541 31,000  Level FlightAware ADS-B (YPPH / PER)
04:07AM -30.0337 117.5418 22° Northeast 464 534 31,000  Level FlightAware ADS-B (YPPH / PER)
04:08AM -29.9727 117.5695 22° Northeast 465 535 31,000  Level FlightAware ADS-B (YPPH / PER)
04:08AM -29.9116 117.5972 21° North 464 534 31,000  Level FlightAware ADS-B (YPPH / PER)
04:09AM -29.8465 117.6266 21° North 464 534 31,000  Level FlightAware ADS-B (YPPH / PER)
04:09AM -29.7832 117.6552 21° North 471 542 31,000  Level FlightAware ADS-B (YPPH / PER)
04:10AM -29.7168 117.6852 21° North 470 541 31,000  Level FlightAware ADS-B (YPPH / PER)
04:10AM -29.6570 117.7123 21° North 468 539 31,000  Level FlightAware ADS-B (YPPH / PER)
04:11AM -29.5965 117.7395 21° North 468 539 31,000  Level FlightAware ADS-B (YPPH / PER)
04:11AM -29.5345 117.7674 21° North 466 536 31,000  Level FlightAware ADS-B (YPPH / PER)
04:12AM -29.4764 117.7934 21° North 464 534 31,000  Level FlightAware ADS-B (YPPH / PER)
04:12AM -29.4148 117.8209 21° North 463 533 31,000  Level FlightAware ADS-B (YPPH / PER)
04:13AM -29.3538 117.8482 21° North 455 524 31,000  Level FlightAware ADS-B (YPPH / PER)
04:13AM -29.2917 117.8761 21° North 454 522 31,000  Level FlightAware ADS-B (YPPH / PER)
04:14AM -29.2316 117.9030 21° North 455 524 31,000  Level FlightAware ADS-B (YPPH / PER)
04:14AM -29.1715 117.9301 21° North 455 524 31,000 60 Level FlightAware ADS-B (YPPH / PER)
04:15AM -29.0927 117.9661 21° North 460 529 31,100  Climbing Aus ATC (RADAR)
04:15AM -29.2140 117.9050 21° North 465 535 31,000 -240 Descending FlightAware
04:16AM -29.1730 117.9230 21° North 465 535 31,000  Level FlightAware
04:17AM -29.0890 117.9590 21° North 465 535 31,000 60 Level FlightAware
04:17AM -28.9225 118.0402 21° North 463 533 31,100  Climbing Aus ATC (RADAR)
04:17AM -29.0070 117.9950 21° North 465 535 31,000 -120 Descending FlightAware
04:18AM -28.9460 118.0220 21° North 465 535 31,000 60 Level FlightAware
04:19AM -28.6828 118.1487 21° North 466 536 31,100 60 Climbing Aus ATC (RADAR)
04:19AM -28.6321 118.1700 21° North 467 537 31,100  Level Aus ATC (RADAR)
04:20AM -28.5604 118.2000 20° North 470 541 31,100  Level Aus ATC (RADAR)
04:20AM -28.5206 118.2183 22° Northeast 470 541 31,100 -60 Level Aus ATC (RADAR)
04:22AM -28.2522 118.3362 21° North 31,000 -60 Descending Aus ATC (Calculated)
04:22AM -28.1851 118.3655 21° North 31,000  Level Aus ATC (Calculated)
04:23AM -27.9836 118.4535 21° North 31,000  Level Aus ATC (Calculated)
04:24AM -28.0503 118.4244 21° North  Level FlightAware Approximate
04:24AM -27.8309 118.5198 21° North 31,000  Level Aus ATC (Calculated)
04:25AM -28.1241 118.4535 180° South  Level FlightAware Approximate
04:26AM -27.9506 118.4678 201° Southwest  Level FlightAware Approximate
04:27AM -28.0645 118.4182 201° Southwest  Level FlightAware Approximate
04:28AM -27.9497 118.4653 21° North  Level Estimated
04:29AM -27.8358 118.5151 21° North  Level FlightAware Approximate
04:29AM -27.3630 118.7220 21° North 31,000  Level Aus ATC (Calculated)
04:29AM -27.2877 118.7543 21° North 31,000  Level Aus ATC (Calculated)
04:31AM -27.1566 118.8106 21° North  Level FlightAware Approximate
04:32AM -27.0425 118.8594 21° North  Level FlightAware Approximate
04:33AM -26.9284 118.9081 21° North  Level FlightAware Approximate
04:34AM -26.8142 118.9568 21° North  Level FlightAware Approximate
04:34AM -26.6462 119.0281 21° North 31,000  Level Aus ATC (Calculated)
04:35AM -26.7001 119.0053 21° North  Level FlightAware Approximate
04:35AM -26.6462 119.0281 21° North 31,000  Level Aus ATC (Calculated)
04:37AM -26.8520 118.9407 201° Southwest  Level FlightAware Approximate
04:38AM -26.7387 118.9889 21° North  Level FlightAware Approximate
04:39AM -26.8520 118.9407 201° Southwest  Level FlightAware Approximate
04:40AM -26.7378 118.9860 21° North  Level Estimated
04:40AM -26.0729 119.2701 22° Northeast 31,000  Level Aus ATC (Calculated)
04:42AM -25.8556 119.3611 21° North  Level FlightAware Approximate
04:43AM -25.7423 119.4084 21° North  Level FlightAware Approximate
04:43AM -25.7622 119.4067 21° North 466 536 31,000  Level Aus ATC (RADAR)
04:44AM -25.6431 119.4541 20° North 463 533 31,100 60 Climbing Aus ATC (RADAR)
04:44AM -25.5845 119.4764 19° North 457 526 31,100  Level Aus ATC (RADAR)
04:45AM -25.5250 119.5006 20° North 454 522 31,100  Level Aus ATC (RADAR)
04:46AM -25.4136 119.5474 21° North 462 532 31,100 -120 Level Aus ATC (RADAR)
04:46AM -25.3442 119.5758 20° North 459 528 31,000 -120 Descending Aus ATC (RADAR)
04:47AM -25.2439 119.6176 21° North 461 531 31,000  Level Aus ATC (RADAR)
04:48AM -25.1740 119.6463 20° North 461 531 31,000  Level Aus ATC (RADAR)
04:49AM -25.0626 119.6918 20° North 465 535 31,000  Level Aus ATC (RADAR)
04:49AM -25.0120 119.7120 20° North 465 535 31,000  Level Aus ATC (RADAR)
04:50AM -24.9412 119.7402 20° North 464 534 31,000  Level Aus ATC (RADAR)
04:51AM -24.8462 119.7804 21° North 479 551 31,000  Level Aus ATC (RADAR)
04:51AM -24.7756 119.8088 20° North 471 542 31,000  Level Aus ATC (RADAR)
04:52AM -24.7032 119.8391 21° North 473 544 31,000  Level Aus ATC (RADAR)
04:52AM -24.6337 119.8669 20° North 463 533 31,000  Level Aus ATC (RADAR)
04:53AM -24.5594 119.8977 21° North 477 549 31,000  Level Aus ATC (RADAR)
04:54AM -24.4477 119.9427 20° North 471 542 31,000  Level Aus ATC (RADAR)
04:54AM -24.3964 119.9637 20° North 472 543 31,000  Level Aus ATC (RADAR)
04:55AM -24.3436 119.9851 20° North 479 551 31,000  Level Aus ATC (RADAR)
04:55AM -24.2713 120.0140 20° North 475 547 31,000  Level Aus ATC (RADAR)
04:56AM -24.1774 120.0522 20° North 480 552 31,000  Level Aus ATC (RADAR)
04:56AM -24.1047 120.0818 20° North 479 551 31,000  Level Aus ATC (RADAR)
04:57AM -24.0313 120.1114 20° North 480 552 31,000  Level Aus ATC (RADAR)
04:58AM -23.9587 120.1409 20° North 478 550 31,000  Level Aus ATC (RADAR)
04:58AM -23.8840 120.1709 20° North 485 558 31,000  Level Aus ATC (RADAR)
04:59AM -23.8103 120.2005 20° North 483 556 31,000  Level Aus ATC (RADAR)
04:59AM -23.7377 120.2297 20° North 479 551 31,000  Level Aus ATC (RADAR)
05:00AM -23.6625 120.2595 20° North 493 567 31,000  Level Aus ATC (RADAR)
05:01AM -23.5926 120.2882 21° North 480 552 31,000  Level Aus ATC (RADAR)
05:01AM -23.5323 120.3130 21° North 472 543 31,000  Level Aus ATC (RADAR)
05:02AM -23.4598 120.3420 20° North 471 542 31,000  Level Aus ATC (RADAR)
05:02AM -23.3848 120.3710 20° North 479 551 31,000  Level Aus ATC (RADAR)
05:03AM -23.3136 120.3998 20° North 473 544 31,000  Level Aus ATC (RADAR)
05:03AM -23.2406 120.4292 20° North 474 545 31,000  Level Aus ATC (RADAR)
05:04AM -23.1461 120.4663 20° North 478 550 31,000  Level Aus ATC (RADAR)
05:05AM -23.0946 120.4871 20° North 476 548 31,000  Level Aus ATC (RADAR)
05:05AM -23.0228 120.5160 20° North 472 543 31,000  Level Aus ATC (RADAR)
05:06AM -22.9291 120.5527 20° North 474 545 31,000  Level Aus ATC (RADAR)
05:06AM -22.8572 120.5818 20° North 473 544 31,000  Level Aus ATC (RADAR)
05:07AM -22.7840 120.6103 20° North 475 547 31,000  Level Aus ATC (RADAR)
05:08AM -22.7117 120.6392 20° North 474 545 31,000  Level Aus ATC (RADAR)
05:08AM -22.6396 120.6679 20° North 472 543 31,000  Level Aus ATC (RADAR)
05:09AM -22.5257 120.7132 20° North 474 545 31,000  Level Aus ATC (RADAR)
05:09AM -22.4837 120.7295 20° North 475 547 31,000  Level Aus ATC (RADAR)
05:10AM -22.4315 120.7500 20° North 475 547 31,000  Level Aus ATC (RADAR)
05:10AM -22.3588 120.7786 20° North 476 548 31,000  Level Aus ATC (RADAR)
05:11AM -22.2651 120.8158 20° North 474 545 31,000  Level Aus ATC (RADAR)
05:12AM -22.1919 120.8441 20° North 475 547 31,000  Level Aus ATC (RADAR)
05:12AM -22.1201 120.8729 20° North 473 544 31,000  Level Aus ATC (RADAR)
05:13AM -22.0465 120.9009 19° North 475 547 31,000 -120 Level Aus ATC (RADAR)
05:13AM -21.9845 120.9254 20° North 474 545 30,900  Descending Aus ATC (RADAR)
05:14AM -21.9113 120.9539 20° North 478 550 31,000 60 Climbing Aus ATC (RADAR)
05:15AM -21.7593 120.9998 16° North 691 795 31,000  Level Aus ATC (RADAR)
05:16AM -21.6770 121.0470 16° North 478 550 31,000  Level FlightAware
05:17AM -21.6060 121.0750 20° North 478 550 31,000  Level FlightAware
05:18AM -21.4790 121.1250 20° North 478 550 31,000  Level FlightAware
05:18AM -21.3335 121.1695 193° South 31,000  Level Aus ATC (Calculated)
05:18AM -21.4140 121.1500 20° North 478 550 31,000  Level FlightAware
05:19AM -21.3500 121.1750 20° North 478 550 31,000  Level FlightAware
05:20AM -21.2860 121.2000 20° North 478 550 31,000  Level FlightAware
05:20AM -21.2210 121.2250 20° North 478 550 31,000  Level FlightAware
05:21AM -21.1340 121.2590 20° North 478 550 31,000  Level FlightAware
05:21AM -20.9342 121.3277 197° South 31,000  Level Aus ATC (Calculated)
05:22AM -21.0900 121.2760 20° North 478 550 31,000  Level FlightAware
05:22AM -21.0270 121.3010 20° North 478 550 31,000  Level FlightAware
05:23AM -20.9210 121.3430 20° North 478 550 31,000  Level FlightAware
05:24AM -20.8360 121.3760 20° North 478 550 31,000  Level FlightAware
05:25AM -20.7710 121.4010 20° North 478 550 31,000  Level FlightAware
05:25AM -20.7280 121.4180 20° North 478 550 31,000  Level FlightAware
05:26AM -20.4398 121.5223 198° South 31,000  Level Aus ATC (Calculated)
05:26AM -20.6630 121.4430 20° North 478 550 31,000  Level FlightAware
05:26AM -20.6200 121.4590 20° North 478 550 31,000  Level FlightAware
05:26AM -20.3436 121.5600 20° North 31,000  Level Aus ATC (Calculated)
05:27AM -20.2174 121.6094 20° North 31,000  Level Aus ATC (Calculated)
05:29AM -20.0645 121.6691 20° North  Level FlightAware Approximate
05:29AM -19.9950 121.6944 22° Northeast 12,100  Level Aus ATC (Calculated)
05:30AM -19.9499 121.7138 20° North  Level FlightAware Approximate
05:30AM -19.8491 121.7501 199° South 12,100  Level Aus ATC (Calculated)
05:32AM -20.0276 121.6831 199° South  Level FlightAware Approximate
05:33AM -20.1427 121.6398 199° South  Level FlightAware Approximate
05:34AM -20.0244 121.6721 20° North  Level Estimated
05:34AM -19.4082 121.9176 20° North 12,100  Level Aus ATC (Calculated)
05:34AM -19.2869 121.9635 20° North 12,100  Level Aus ATC (Calculated)
05:35AM -19.2338 121.9836 20° North 12,100  Level Aus ATC (Calculated)
05:37AM -19.0441 122.0552 20° North  Level FlightAware Approximate
05:38AM -18.9291 122.0986 20° North  Level FlightAware Approximate
05:38AM -18.8855 122.1150 20° North 12,100  Level Aus ATC (Calculated)
05:40AM -18.6861 122.1899 20° North  Level FlightAware Approximate
05:41AM -18.5711 122.2331 20° North  Level FlightAware Approximate
05:41AM -18.5495 122.2411 20° North 12,100  Level Aus ATC (Calculated)
05:43AM -18.3501 122.3158 20° North  Level FlightAware Approximate
05:43AM -18.3147 122.2711 175° South 600  Level Aus ATC (Calculated)
05:45AM -18.4768 122.2869 175° South  Level FlightAware Approximate
05:46AM -18.3552 122.2751 355° North  Level FlightAware Approximate
05:46AM -18.1325 122.2485 360° North  Level Aus ATC (Calculated)
05:46AM -18.1325 122.2485 360° North  Level Aus ATC (Calculated)
05:46AM -18.1325 122.2485 174° South  Level Aus ATC (Calculated)
05:48AM -18.3045 122.2680 174° South  Level FlightAware Approximate
05:49AM -18.4259 122.2818 174° South  Level FlightAware Approximate
05:50AM -18.5473 122.2956 174° South  Level FlightAware Approximate
05:51AM -18.4258 122.2827 354° North  Level Estimated
05:52AM -18.3044 122.2687 354° North  Level FlightAware Approximate
05:53AM -17.9463 122.2353 66° East  Level FlightAware Approximate